createdAt,value
2023-04-29T00:00:12.467Z,100437.25
2023-04-29T00:03:15.267Z,100454.41
2023-04-29T00:06:18.218Z,100465.97
2023-04-29T00:09:21.978Z,100452.28
2023-04-29T00:12:24.610Z,100455.72
2023-04-29T00:15:27.155Z,100455.50
2023-04-29T00:18:30.207Z,100459.56
2023-04-29T00:21:33.309Z,100452.56
2023-04-29T00:24:36.558Z,100457.88
2023-04-29T00:27:39.569Z,100445.34
2023-04-29T00:30:42.172Z,100451.63
2023-04-29T00:33:45.920Z,100438.28
2023-04-29T00:36:48.291Z,100425.53
2023-04-29T00:39:51.137Z,100448.78
2023-04-29T00:42:53.948Z,100436.72
2023-04-29T00:45:56.578Z,100442.69
2023-04-29T00:49:00.446Z,100413.44
2023-04-29T00:52:03.017Z,100448.97
2023-04-29T00:55:07.355Z,100430.56
2023-04-29T00:58:10.488Z,100447.94
2023-04-29T01:01:13.200Z,100437.00
2023-04-29T01:04:16.438Z,100422.44
2023-04-29T01:07:43.037Z,100448.38
2023-04-29T01:10:54.223Z,100423.03
2023-04-29T01:14:03.105Z,100417.66
2023-04-29T01:17:11.137Z,100426.19
2023-04-29T01:20:15.568Z,100403.56
2023-04-29T01:23:18.347Z,100448.88
2023-04-29T01:26:20.733Z,100418.31
2023-04-29T01:29:43.293Z,100447.81
2023-04-29T01:32:58.259Z,100422.47
2023-04-29T01:36:43.608Z,100439.22
2023-04-29T01:40:18.834Z,100445.69
2023-04-29T01:43:36.005Z,100447.81
2023-04-29T01:46:52.003Z,100429.75
2023-04-29T01:49:55.759Z,100436.00
2023-04-29T01:52:58.665Z,100433.63
2023-04-29T01:56:01.036Z,100439.06
2023-04-29T01:59:18.817Z,100436.78
2023-04-29T02:02:40.162Z,100416.47
2023-04-29T02:05:54.106Z,100432.63
2023-04-29T02:08:56.631Z,100432.63
2023-04-29T02:11:59.676Z,100419.31
2023-04-29T02:15:02.286Z,100429.91
2023-04-29T02:18:05.234Z,100438.22
2023-04-29T02:21:08.628Z,100383.09
2023-04-29T02:24:11.665Z,100421.47
2023-04-29T02:27:14.164Z,100440.59
2023-04-29T02:30:17.324Z,100409.94
2023-04-29T02:33:20.310Z,100440.66
2023-04-29T02:36:22.888Z,100441.41
2023-04-29T02:39:27.724Z,100448.22
2023-04-29T02:42:31.540Z,100417.22
2023-04-29T02:45:37.179Z,100430.91
2023-04-29T02:48:39.611Z,100443.09
2023-04-29T02:51:42.448Z,100432.78
2023-04-29T02:54:45.045Z,100434.53
2023-04-29T02:57:47.668Z,100409.94
2023-04-29T03:00:50.111Z,100361.06
2023-04-29T03:03:54.163Z,100433.81
2023-04-29T03:06:57.033Z,100413.25
2023-04-29T03:10:01.833Z,100410.16
2023-04-29T03:13:05.609Z,100418.94
2023-04-29T03:16:09.973Z,100436.66
2023-04-29T03:19:12.560Z,100413.19
2023-04-29T03:22:15.130Z,100430.22
2023-04-29T03:25:18.934Z,100437.44
2023-04-29T03:28:21.645Z,100416.22
2023-04-29T03:31:25.477Z,100409.97
2023-04-29T03:34:28.284Z,100416.78
2023-04-29T03:37:48.359Z,100431.41
2023-04-29T03:40:57.188Z,100429.91
2023-04-29T03:44:00.980Z,100403.88
2023-04-29T03:47:05.088Z,100418.22
2023-04-29T03:50:08.578Z,100439.94
2023-04-29T03:53:12.440Z,100425.91
2023-04-29T03:56:16.898Z,100415.09
2023-04-29T03:59:20.204Z,100416.34
2023-04-29T04:02:24.612Z,100433.50
2023-04-29T04:05:27.620Z,100446.97
2023-04-29T04:08:35.409Z,100447.25
2023-04-29T04:11:48.609Z,100441.56
2023-04-29T04:14:51.578Z,100410.41
2023-04-29T04:17:54.065Z,100412.22
2023-04-29T04:20:56.481Z,100402.91
2023-04-29T04:24:01.168Z,100441.53
2023-04-29T04:27:05.092Z,100437.28
2023-04-29T04:30:12.684Z,100430.81
2023-04-29T04:33:16.013Z,100432.06
2023-04-29T04:36:19.918Z,100435.28
2023-04-29T04:39:22.549Z,100436.28
2023-04-29T04:42:25.496Z,100385.56
2023-04-29T04:45:31.898Z,100443.53
2023-04-29T04:48:34.813Z,100415.25
2023-04-29T04:51:47.369Z,100412.91
2023-04-29T04:54:50.219Z,100398.81
2023-04-29T04:57:58.622Z,100407.88
2023-04-29T05:01:01.258Z,100428.66
2023-04-29T05:04:03.919Z,100422.88
2023-04-29T05:07:06.986Z,100421.09
2023-04-29T05:10:26.962Z,100418.31
2023-04-29T05:13:33.506Z,100442.31
2023-04-29T05:16:37.379Z,100421.56
2023-04-29T05:19:39.946Z,100434.25
2023-04-29T05:22:42.404Z,100425.69
2023-04-29T05:25:45.014Z,100432.22
2023-04-29T05:28:47.538Z,100418.00
2023-04-29T05:31:51.458Z,100435.41
2023-04-29T05:34:54.068Z,100438.16
2023-04-29T05:37:56.557Z,100422.13
2023-04-29T05:41:24.250Z,100433.50
2023-04-29T05:44:45.073Z,100426.09
2023-04-29T05:47:47.607Z,100447.84
2023-04-29T05:50:51.224Z,100443.72
2023-04-29T05:53:59.452Z,100446.75
2023-04-29T05:57:03.312Z,100416.59
2023-04-29T06:00:07.145Z,100408.63
2023-04-29T06:03:16.924Z,100431.41
2023-04-29T06:06:19.898Z,100430.06
2023-04-29T06:09:36.905Z,100427.34
2023-04-29T06:12:39.360Z,100417.38
2023-04-29T06:15:41.931Z,100436.19
2023-04-29T06:18:44.458Z,100412.25
2023-04-29T06:21:49.090Z,100407.06
2023-04-29T06:24:51.927Z,100426.16
2023-04-29T06:28:16.476Z,100391.31
2023-04-29T06:31:19.124Z,100402.19
2023-04-29T06:34:23.282Z,100407.84
2023-04-29T06:37:52.836Z,100380.75
2023-04-29T06:41:13.649Z,100389.13
2023-04-29T06:44:29.234Z,100376.47
2023-04-29T06:47:43.650Z,100394.41
2023-04-29T06:50:52.633Z,100418.19
2023-04-29T06:53:55.447Z,100422.97
2023-04-29T06:56:58.409Z,100423.97
2023-04-29T07:00:00.932Z,100412.28
2023-04-29T07:03:03.722Z,100414.72
2023-04-29T07:06:06.642Z,100396.50
2023-04-29T07:09:09.132Z,100405.56
2023-04-29T07:12:12.860Z,100431.03
2023-04-29T07:15:15.328Z,100416.66
2023-04-29T07:18:18.154Z,100412.84
2023-04-29T07:21:20.570Z,100420.28
2023-04-29T07:24:24.425Z,100421.72
2023-04-29T07:27:27.177Z,100435.91
2023-04-29T07:30:30.058Z,100426.41
2023-04-29T07:33:33.048Z,100410.44
2023-04-29T07:36:35.653Z,100436.94
2023-04-29T07:39:38.169Z,100439.31
2023-04-29T07:42:40.977Z,100438.84
2023-04-29T07:45:43.890Z,100442.97
2023-04-29T07:48:46.486Z,100453.31
2023-04-29T07:51:48.897Z,100448.19
2023-04-29T07:54:51.864Z,100454.81
2023-04-29T07:57:54.530Z,100452.44
2023-04-29T08:00:57.002Z,100460.31
2023-04-29T08:03:59.568Z,100452.13
2023-04-29T08:07:04.705Z,100467.78
2023-04-29T08:10:07.694Z,100442.72
2023-04-29T08:13:12.781Z,100436.66
2023-04-29T08:16:15.526Z,100466.28
2023-04-29T08:19:18.122Z,100451.75
2023-04-29T08:22:20.577Z,100440.06
2023-04-29T08:25:23.334Z,100464.81
2023-04-29T08:28:25.907Z,100419.69
2023-04-29T08:31:28.460Z,100450.88
2023-04-29T08:34:32.019Z,100458.81
2023-04-29T08:37:34.517Z,100454.97
2023-04-29T08:40:42.948Z,100447.28
2023-04-29T08:43:45.422Z,100442.19
2023-04-29T08:46:48.748Z,100444.81
2023-04-29T08:49:51.302Z,100469.78
2023-04-29T08:52:53.814Z,100442.84
2023-04-29T08:56:00.241Z,100444.56
2023-04-29T08:59:02.767Z,100467.91
2023-04-29T09:02:10.779Z,100466.19
2023-04-29T09:05:13.335Z,100466.06
2023-04-29T09:08:17.076Z,100459.81
2023-04-29T09:11:19.873Z,100448.97
2023-04-29T09:14:24.459Z,100463.84
2023-04-29T09:17:46.741Z,100469.81
2023-04-29T09:20:49.272Z,100465.00
2023-04-29T09:23:54.212Z,100448.16
2023-04-29T09:26:58.749Z,100456.38
2023-04-29T09:30:02.031Z,100456.50
2023-04-29T09:33:09.684Z,100438.31
2023-04-29T09:36:12.740Z,100457.75
2023-04-29T09:39:19.722Z,100442.31
2023-04-29T09:42:22.234Z,100430.03
2023-04-29T09:45:38.634Z,100442.34
2023-04-29T09:48:41.065Z,100452.63
2023-04-29T09:51:53.440Z,100437.50
2023-04-29T09:55:05.568Z,100429.53
2023-04-29T09:58:08.243Z,100449.94
2023-04-29T10:01:13.330Z,100437.56
2023-04-29T10:04:16.979Z,100445.28
2023-04-29T10:07:20.340Z,100418.94
2023-04-29T10:10:24.671Z,100415.94
2023-04-29T10:13:28.400Z,100427.06
2023-04-29T10:16:36.926Z,100419.91
2023-04-29T10:19:46.151Z,100421.50
2023-04-29T10:22:50.689Z,100428.13
2023-04-29T10:25:53.633Z,100402.13
2023-04-29T10:28:57.295Z,100399.03
2023-04-29T10:32:00.953Z,100421.88
2023-04-29T10:35:05.946Z,100404.16
2023-04-29T10:38:24.083Z,100388.88
2023-04-29T10:41:34.581Z,100407.88
2023-04-29T10:45:15.472Z,100406.69
2023-04-29T10:48:21.331Z,100401.59
2023-04-29T10:51:34.945Z,100387.19
2023-04-29T10:54:39.752Z,100406.50
2023-04-29T10:57:42.520Z,100390.69
2023-04-29T11:00:45.105Z,100401.03
2023-04-29T11:04:00.402Z,100401.22
2023-04-29T11:07:03.156Z,100383.91
2023-04-29T11:10:07.189Z,100388.75
2023-04-29T11:13:28.497Z,100402.34
2023-04-29T11:16:31.002Z,100392.50
2023-04-29T11:19:35.948Z,100390.91
2023-04-29T11:22:38.489Z,100385.47
2023-04-29T11:25:41.021Z,100360.63
2023-04-29T11:28:43.910Z,100355.91
2023-04-29T11:31:46.814Z,100367.19
2023-04-29T11:34:49.373Z,100371.94
2023-04-29T11:37:53.154Z,100360.00
2023-04-29T11:40:57.161Z,100352.00
2023-04-29T11:44:01.326Z,100369.53
2023-04-29T11:47:07.626Z,100340.44
2023-04-29T11:50:10.509Z,100362.84
2023-04-29T11:53:13.078Z,100333.63
2023-04-29T11:56:15.744Z,100326.03
2023-04-29T11:59:19.285Z,100343.72
2023-04-29T12:02:23.790Z,100319.63
2023-04-29T12:05:26.907Z,100343.59
2023-04-29T12:08:30.939Z,100339.75
2023-04-29T12:11:33.468Z,100338.50
2023-04-29T12:14:36.549Z,100319.59
2023-04-29T12:17:39.568Z,100332.66
2023-04-29T12:20:42.258Z,100317.91
2023-04-29T12:23:46.422Z,100341.41
2023-04-29T12:26:49.556Z,100304.28
2023-04-29T12:29:52.690Z,100320.72
2023-04-29T12:32:55.465Z,100305.56
2023-04-29T12:35:59.042Z,100308.00
2023-04-29T12:39:02.101Z,100297.72
2023-04-29T12:42:04.555Z,100275.28
2023-04-29T12:45:08.128Z,100290.00
2023-04-29T12:48:22.116Z,100295.66
2023-04-29T12:51:29.313Z,100303.84
2023-04-29T12:54:31.846Z,100283.47
2023-04-29T12:57:34.570Z,100265.97
2023-04-29T13:00:37.983Z,100279.78
2023-04-29T13:03:40.809Z,100293.19
2023-04-29T13:06:43.371Z,100272.94
2023-04-29T13:09:45.774Z,100279.50
2023-04-29T13:12:48.412Z,100265.19
2023-04-29T13:15:50.812Z,100278.41
2023-04-29T13:19:05.348Z,100271.44
2023-04-29T13:22:15.581Z,100262.44
2023-04-29T13:25:18.115Z,100253.63
2023-04-29T13:28:22.232Z,100273.88
2023-04-29T13:31:24.725Z,100271.72
2023-04-29T13:34:27.308Z,100263.34
2023-04-29T13:37:29.866Z,100274.06
2023-04-29T13:40:37.413Z,100240.25
2023-04-29T13:43:43.547Z,100250.16
2023-04-29T13:46:47.496Z,100232.47
2023-04-29T13:53:30.698Z,100243.63
2023-04-29T14:02:30.067Z,100240.06
2023-04-29T14:05:33.432Z,100235.78
2023-04-29T14:08:36.134Z,100247.25
2023-04-29T14:11:38.603Z,100233.03
2023-04-29T14:14:41.155Z,100239.13
2023-04-29T14:17:43.718Z,100249.88
2023-04-29T14:20:46.383Z,100249.63
2023-04-29T14:23:49.723Z,100223.72
2023-04-29T14:26:53.292Z,100222.16
2023-04-29T14:29:55.683Z,100228.28
2023-04-29T14:32:58.265Z,100233.19
2023-04-29T14:36:01.093Z,100228.19
2023-04-29T14:39:04.390Z,100219.63
2023-04-29T14:42:06.976Z,100226.72
2023-04-29T14:45:10.330Z,100224.19
2023-04-29T14:48:12.855Z,100226.03
2023-04-29T14:51:15.266Z,100213.25
2023-04-29T14:54:17.842Z,100198.38
2023-04-29T14:57:20.395Z,100222.78
2023-04-29T15:00:22.927Z,100208.78
2023-04-29T15:03:25.654Z,100195.00
2023-04-29T15:06:28.634Z,100208.44
2023-04-29T15:09:32.168Z,100206.53
2023-04-29T15:12:35.377Z,100209.13
2023-04-29T15:15:37.949Z,100216.19
2023-04-29T15:18:44.099Z,100186.09
2023-04-29T15:21:48.013Z,100192.09
2023-04-29T15:24:52.639Z,100211.88
2023-04-29T15:27:55.794Z,100216.97
2023-04-29T15:30:59.918Z,100224.84
2023-04-29T15:34:02.432Z,100195.22
2023-04-29T15:37:04.819Z,100215.09
2023-04-29T15:40:08.326Z,100197.63
2023-04-29T15:43:11.302Z,100217.72
2023-04-29T15:46:13.969Z,100213.97
2023-04-29T15:49:16.383Z,100187.28
2023-04-29T15:52:18.976Z,100215.03
2023-04-29T15:55:21.511Z,100210.59
2023-04-29T15:58:24.265Z,100203.56
2023-04-29T16:01:28.134Z,100213.75
2023-04-29T16:04:31.680Z,100210.16
2023-04-29T16:07:35.505Z,100197.34
2023-04-29T16:10:39.161Z,100203.03
2023-04-29T16:13:41.630Z,100191.84
2023-04-29T16:16:44.192Z,100210.47
2023-04-29T16:19:47.010Z,100168.91
2023-04-29T16:22:49.506Z,100214.81
2023-04-29T16:25:52.702Z,100212.72
2023-04-29T16:28:56.013Z,100207.31
2023-04-29T16:31:58.436Z,100217.00
2023-04-29T16:35:01.858Z,100184.13
2023-04-29T16:38:04.442Z,100203.53
2023-04-29T16:41:07.414Z,100185.78
2023-04-29T16:44:09.865Z,100204.72
2023-04-29T16:47:12.312Z,100207.25
2023-04-29T16:50:14.937Z,100208.09
2023-04-29T16:53:17.347Z,100200.97
2023-04-29T16:56:20.124Z,100179.16
2023-04-29T16:59:22.583Z,100201.22
2023-04-29T17:02:25.130Z,100190.66
2023-04-29T17:05:27.858Z,100206.25
2023-04-29T17:08:30.252Z,100210.56
2023-04-29T17:11:32.654Z,100194.06
2023-04-29T17:14:35.121Z,100205.13
2023-04-29T17:17:37.792Z,100205.03
2023-04-29T17:20:42.100Z,100201.59
2023-04-29T17:23:44.497Z,100185.13
2023-04-29T17:26:47.047Z,100191.78
2023-04-29T17:29:49.484Z,100203.63
2023-04-29T17:32:52.149Z,100183.88
2023-04-29T17:35:54.532Z,100199.72
2023-04-29T17:38:57.026Z,100175.91
2023-04-29T17:41:59.699Z,100189.03
2023-04-29T17:45:02.511Z,100209.56
2023-04-29T17:48:05.775Z,100185.38
2023-04-29T17:51:09.506Z,100213.44
2023-04-29T17:54:11.915Z,100207.59
2023-04-29T17:57:14.626Z,100210.09
2023-04-29T18:00:18.282Z,100175.81
2023-04-29T18:03:20.915Z,100185.47
2023-04-29T18:06:23.891Z,100211.38
2023-04-29T18:09:26.573Z,100184.97
2023-04-29T18:12:29.197Z,100216.59
2023-04-29T18:15:31.630Z,100193.47
2023-04-29T18:18:34.336Z,100194.41
2023-04-29T18:21:36.893Z,100202.91
2023-04-29T18:24:39.551Z,100216.72
2023-04-29T18:27:41.926Z,100205.66
2023-04-29T18:30:47.654Z,100209.97
2023-04-29T18:33:50.294Z,100244.22
2023-04-29T18:36:53.068Z,100246.47
2023-04-29T18:39:55.951Z,100250.13
2023-04-29T18:42:58.848Z,100245.94
2023-04-29T18:46:01.387Z,100257.53
2023-04-29T18:49:03.858Z,100221.13
2023-04-29T18:52:06.565Z,100224.47
2023-04-29T18:55:09.159Z,100243.97
2023-04-29T18:58:11.671Z,100215.47
2023-04-29T19:01:14.294Z,100250.63
2023-04-29T19:04:17.064Z,100243.03
2023-04-29T19:07:19.565Z,100216.06
2023-04-29T19:10:23.377Z,100236.31
2023-04-29T19:13:26.713Z,100225.97
2023-04-29T19:16:29.610Z,100238.69
2023-04-29T19:19:32.742Z,100244.66
2023-04-29T19:22:35.393Z,100227.75
2023-04-29T19:25:38.319Z,100253.09
2023-04-29T19:28:40.776Z,100257.19
2023-04-29T19:31:43.951Z,100256.69
2023-04-29T19:34:47.112Z,100233.25
2023-04-29T19:37:49.789Z,100234.22
2023-04-29T19:40:55.712Z,100256.28
2023-04-29T19:43:58.142Z,100254.72
2023-04-29T19:47:00.919Z,100226.94
2023-04-29T19:50:04.754Z,100257.34
2023-04-29T19:53:07.631Z,100234.47
2023-04-29T19:56:10.444Z,100257.22
2023-04-29T19:59:13.378Z,100255.81
2023-04-29T20:02:16.278Z,100254.66
2023-04-29T20:05:19.817Z,100260.97
2023-04-29T20:08:22.174Z,100260.06
2023-04-29T20:11:24.971Z,100262.16
2023-04-29T20:14:27.573Z,100235.25
2023-04-29T20:17:29.995Z,100240.63
2023-04-29T20:20:32.662Z,100268.38
2023-04-29T20:23:35.122Z,100235.84
2023-04-29T20:26:37.812Z,100230.03
2023-04-29T20:29:41.100Z,100228.19
2023-04-29T20:32:43.897Z,100249.97
2023-04-29T20:35:46.568Z,100218.16
2023-04-29T20:38:49.172Z,100240.38
2023-04-29T20:41:51.730Z,100249.22
2023-04-29T20:44:54.113Z,100251.00
2023-04-29T20:47:56.710Z,100242.72
2023-04-29T20:50:59.844Z,100250.81
2023-04-29T20:54:02.872Z,100220.78
2023-04-29T20:57:05.787Z,100226.50
2023-04-29T21:00:09.788Z,100228.00
2023-04-29T21:03:12.280Z,100256.16
2023-04-29T21:06:14.907Z,100253.81
2023-04-29T21:09:17.851Z,100259.38
2023-04-29T21:12:20.745Z,100257.50
2023-04-29T21:15:23.758Z,100236.66
2023-04-29T21:18:26.400Z,100226.09
2023-04-29T21:21:28.882Z,100253.50
2023-04-29T21:24:31.593Z,100257.53
2023-04-29T21:27:35.835Z,100250.44
2023-04-29T21:30:38.326Z,100256.47
2023-04-29T21:33:41.359Z,100235.84
2023-04-29T21:36:43.866Z,100251.16
2023-04-29T21:39:46.332Z,100257.56
2023-04-29T21:42:49.610Z,100247.53
2023-04-29T21:45:53.545Z,100227.13
2023-04-29T21:48:57.814Z,100210.22
2023-04-29T21:52:01.697Z,100226.63
2023-04-29T21:55:04.404Z,100248.97
2023-04-29T21:58:07.271Z,100230.19
2023-04-29T22:01:26.813Z,100248.91
2023-04-29T22:04:30.193Z,100250.09
2023-04-29T22:07:32.602Z,100218.59
2023-04-29T22:10:35.086Z,100251.56
2023-04-29T22:13:38.000Z,100239.50
2023-04-29T22:16:40.517Z,100241.72
2023-04-29T22:19:43.009Z,100225.41
2023-04-29T22:22:45.957Z,100237.19
2023-04-29T22:25:48.621Z,100215.00
2023-04-29T22:28:53.913Z,100215.00
2023-04-29T22:31:56.760Z,100213.06
2023-04-29T22:35:00.649Z,100215.31
2023-04-29T22:38:03.461Z,100241.56
2023-04-29T22:41:07.226Z,100238.47
2023-04-29T22:44:09.793Z,100230.06
2023-04-29T22:47:12.282Z,100208.13
2023-04-29T22:50:14.714Z,100232.25
2023-04-29T22:53:17.118Z,100211.47
2023-04-29T22:56:19.832Z,100206.03
2023-04-29T22:59:22.675Z,100237.53
2023-04-29T23:02:29.310Z,100238.91
2023-04-29T23:05:32.152Z,100233.50
2023-04-29T23:08:35.003Z,100210.13
2023-04-29T23:11:37.460Z,100204.13
2023-04-29T23:14:39.927Z,100219.44
2023-04-29T23:17:42.409Z,100228.34
2023-04-29T23:20:48.061Z,100230.41
2023-04-29T23:23:50.445Z,100205.78
2023-04-29T23:26:53.050Z,100203.50
2023-04-29T23:29:56.210Z,100240.38
2023-04-29T23:32:58.974Z,100213.66
2023-04-29T23:36:01.406Z,100231.22
2023-04-29T23:39:03.895Z,100220.50
2023-04-29T23:42:06.235Z,100233.25
2023-04-29T23:45:09.070Z,100234.53
2023-04-29T23:48:12.180Z,100209.69
2023-04-29T23:51:14.586Z,100205.91
2023-04-29T23:54:17.340Z,100226.25
2023-04-29T23:57:19.756Z,100192.41
